Kangerlussuaq, Greenland
Current Conditions -  °F | °C
As of 1:50 PM on Thursday 27 Nov 2014 (Local Time) from BGSF Reporting Station
Clear Clear  
Wind Chill: -16°   Ceiling: Unl
Heat Index:   Visibility: 6mi
Dew Point: -6°   Wind: 9mph
Humidity: 78%   Direction: 60°ENE
Pressure: 29.68"   Gusts: NA
Location:  67°N, 50.69°W
Report Text: BGSF 271550Z AUTO 06008KT 9999NDV NCD M18/M21 Q1005
Loading
Personal Weather Stations






























Interactive Weather Map New forecast layout! Learn more

10-Day Weather Forecast

Advertisements
Track Severe Weather on mobile